Time;durP1;ratioP1;P1;durP2;ratioP2;P2;SDS_P1;SDS_P2;PMS_P1;PMS_P2;Temp;Humidity;BMP_temperature;BMP_pressure;BME280_temperature;BME280_humidity;BME280_pressure;Samples;Min_cycle;Max_cycle;Signal;HPM_P1;HPM_P2
2021/04/28 03:57:03;;;;;;;15.35;13.70;;;;;;;1.31;100.00;101338.97;1720155;82;21185;-87
2021/04/28 03:59:34;;;;;;;14.83;13.15;;;;;;;1.25;100.00;101334.37;1724457;81;21145;-87
2021/04/28 04:02:04;;;;;;;;;;;;;;;1.25;100.00;101330.52;1722260;81;21846;-87
2021/04/28 04:04:37;;;;;;;15.93;13.95;;;;;;;1.30;100.00;101332.14;1688081;83;20533;-87
2021/04/28 04:07:20;;;;;;;16.00;14.20;;;;;;;1.39;100.00;101329.35;1875379;76;23352;-86
2021/04/28 04:09:59;;;;;;;14.05;12.55;;;;;;;1.39;100.00;101326.79;1779453;78;21075;-87
2021/04/28 04:12:28;;;;;;;14.73;13.22;;;;;;;1.47;100.00;101328.72;1769430;79;21364;-88
2021/04/28 04:14:58;;;;;;;13.85;12.33;;;;;;;1.57;100.00;101335.28;1807306;78;21094;-87
2021/04/28 04:17:27;;;;;;;19.05;15.63;;;;;;;1.71;100.00;101333.64;1774487;80;21186;-87
2021/04/28 04:20:14;;;;;;;16.30;14.63;;;;;;;1.89;100.00;101332.30;1872149;76;22900;-89
2021/04/28 04:22:47;;;;;;;16.10;13.60;;;;;;;1.96;100.00;101336.83;1858132;77;22263;-87
2021/04/28 04:25:49;;;;;;;14.55;13.08;;;;;;;2.08;100.00;101338.22;1888916;75;22305;-87
2021/04/28 04:28:21;;;;;;;15.15;13.55;;;;;;;2.13;100.00;101338.09;1840974;77;21194;-87
2021/04/28 04:31:00;;;;;;;12.93;11.63;;;;;;;2.24;100.00;101329.65;1888789;76;22325;-87
2021/04/28 04:33:36;;;;;;;14.55;13.00;;;;;;;2.24;100.00;101332.64;1853887;77;21150;-88
2021/04/28 04:36:23;;;;;;;14.93;13.43;;;;;;;2.28;100.00;101337.66;1859730;77;21557;-89
2021/04/28 04:43:10;;;;;;;14.35;12.90;;;;;;;2.44;100.00;101344.91;1847073;77;21591;-89
2021/04/28 04:49:49;;;;;;;16.02;14.43;;;;;;;2.72;100.00;101347.50;1849026;77;20473;-87
2021/04/28 04:52:19;;;;;;;15.23;13.72;;;;;;;2.86;100.00;101353.95;1845911;77;21201;-87
2021/04/28 04:59:11;;;;;;;16.12;14.53;;;;;;;3.09;100.00;101354.52;1830509;77;20973;-84
2021/04/28 05:06:03;;;;;;;14.05;12.65;;;;;;;3.33;100.00;101352.87;1829103;77;21459;-85
2021/04/28 05:12:55;;;;;;;15.68;14.07;;;;;;;3.59;100.00;101358.89;1849674;77;20997;-86
2021/04/28 05:19:47;;;;;;;20.23;13.83;;;;;;;4.11;100.00;101362.66;1806935;79;21204;-85
2021/04/28 05:26:19;;;;;;;17.27;13.13;;;;;;;4.58;100.00;101362.64;1824780;77;21056;-86
2021/04/28 05:33:11;;;;;;;17.57;11.50;;;;;;;5.13;100.00;101376.05;1819124;77;21583;-85
2021/04/28 05:43:55;;;;;;;14.50;11.55;;;;;;;5.79;100.00;101392.69;1813301;78;21156;-86
2021/04/28 05:50:48;;;;;;;13.40;8.95;;;;;;;6.07;100.00;101397.14;1811821;78;21144;-86
2021/04/28 05:57:21;;;;;;;11.83;10.35;;;;;;;6.18;100.00;101401.41;1816892;78;21160;-85
2021/04/28 06:04:12;;;;;;;11.33;10.23;;;;;;;6.28;100.00;101407.00;1819741;78;21167;-86
2021/04/28 06:11:04;;;;;;;11.12;10.05;;;;;;;6.34;100.00;101408.48;1799400;78;21113;-86
2021/04/28 06:17:56;;;;;;;11.45;10.35;;;;;;;6.51;100.00;101409.01;1818839;78;21544;-86
2021/04/28 06:24:48;;;;;;;19.35;10.23;;;;;;;6.63;100.00;101404.59;1831589;78;21445;-88
2021/04/28 06:31:39;;;;;;;11.45;10.23;;;;;;;6.83;100.00;101406.69;1831500;78;21104;-86
2021/04/28 06:38:31;;;;;;;11.95;10.75;;;;;;;7.04;100.00;101405.70;1825252;77;21143;-85
2021/04/28 06:49:38;;;;;;;23.67;11.25;;;;;;;7.47;100.00;101413.14;1815283;78;21053;-86
2021/04/28 06:56:31;;;;;;;12.93;9.43;;;;;;;7.78;100.00;101421.11;1831147;78;21061;-85
2021/04/28 06:59:00;;;;;;;9.95;7.62;;;;;;;8.07;100.00;101427.41;1820764;78;21097;-88
2021/04/28 07:01:28;;;;;;;11.90;8.45;;;;;;;8.17;100.00;101431.22;1827490;78;22364;-89
2021/04/28 07:03:57;;;;;;;9.65;8.28;;;;;;;8.20;100.00;101432.81;1830629;78;21175;-88
2021/04/28 07:06:26;;;;;;;8.10;7.05;;;;;;;8.24;100.00;101439.97;1785824;78;21143;-88
2021/04/28 07:08:55;;;;;;;9.03;8.13;;;;;;;8.24;100.00;101441.27;1789198;77;21107;-88
2021/04/28 07:11:23;;;;;;;7.87;7.08;;;;;;;8.27;100.00;101447.61;1802482;78;21697;-88
2021/04/28 07:13:51;;;;;;;13.28;7.65;;;;;;;8.27;100.00;101443.72;1764295;78;21655;-88
2021/04/28 07:16:19;;;;;;;13.65;8.10;;;;;;;8.35;100.00;101446.28;1800367;78;21184;-88
2021/04/28 07:18:49;;;;;;;8.70;7.08;;;;;;;8.42;100.00;101444.65;1816574;78;21108;-88
2021/04/28 07:21:18;;;;;;;17.27;7.70;;;;;;;8.49;100.00;101449.95;1782850;78;21177;-88
2021/04/28 07:23:46;;;;;;;7.87;6.67;;;;;;;8.55;100.00;101444.88;1744719;80;21151;-88
2021/04/28 07:26:15;;;;;;;6.78;5.87;;;;;;;8.64;100.00;101439.19;1727205;81;21225;-88
2021/04/28 07:28:48;;;;;;;10.88;6.70;;;;;;;8.80;100.00;101440.52;1739169;81;21611;-88
2021/04/28 07:31:13;;;;;;;11.22;7.28;;;;;;;8.99;100.00;101430.77;1760941;81;21139;-88
2021/04/28 07:33:41;;;;;;;8.88;7.40;;;;;;;9.15;100.00;101433.81;1768355;80;21460;-88
2021/04/28 07:36:12;;;;;;;13.95;7.40;;;;;;;9.24;100.00;101438.97;1762472;80;21172;-88
2021/04/28 07:38:40;;;;;;;9.90;7.40;;;;;;;9.28;100.00;101435.27;1743208;81;21264;-88
2021/04/28 07:41:10;;;;;;;7.70;6.90;;;;;;;9.31;100.00;101441.59;1739008;81;21184;-88
2021/04/28 07:43:38;;;;;;;9.68;6.60;;;;;;;9.38;100.00;101441.62;1750360;81;21128;-88
2021/04/28 07:46:06;;;;;;;7.28;6.58;;;;;;;9.38;100.00;101442.06;1746844;81;21132;-88
2021/04/28 07:48:35;;;;;;;6.58;5.80;;;;;;;9.33;100.00;101441.05;1768405;81;21139;-88
2021/04/28 07:51:05;;;;;;;9.60;6.58;;;;;;;9.23;100.00;101442.48;1768135;81;22364;-88
2021/04/28 07:53:34;;;;;;;8.90;6.03;;;;;;;9.08;100.00;101438.53;1764634;81;21126;-88
2021/04/28 07:56:03;;;;;;;7.60;5.78;;;;;;;8.98;100.00;101439.95;1712919;82;21655;-88
2021/04/28 07:58:31;;;;;;;6.00;5.47;;;;;;;9.02;100.00;101444.52;1741453;81;21158;-88
2021/04/28 08:01:03;;;;;;;6.92;5.78;;;;;;;9.14;100.00;101445.98;1749953;80;21215;-88
2021/04/28 08:03:31;;;;;;;6.08;5.47;;;;;;;9.29;100.00;101444.26;1806621;78;21663;-88
2021/04/28 08:05:59;;;;;;;6.33;5.70;;;;;;;9.45;100.00;101444.24;1825271;77;21161;-87
2021/04/28 08:08:29;;;;;;;6.22;5.62;;;;;;;9.62;100.00;101447.64;1814549;77;21107;-88
2021/04/28 08:10:57;;;;;;;6.22;5.62;;;;;;;9.74;100.00;101436.50;1772457;79;21143;-88
2021/04/28 08:13:25;;;;;;;8.35;5.47;;;;;;;9.75;100.00;101444.69;1768414;80;21126;-88
2021/04/28 08:15:53;;;;;;;5.28;4.75;;;;;;;9.73;100.00;101443.11;1717178;82;21651;-88
2021/04/28 08:18:24;;;;;;;5.70;5.12;;;;;;;9.74;100.00;101448.21;1746592;81;21153;-88
2021/04/28 08:20:52;;;;;;;5.05;4.65;;;;;;;9.83;100.00;101446.85;1751093;81;21152;-90
2021/04/28 08:23:29;;;;;;;6.15;5.55;;;;;;;9.95;100.00;101447.89;1768796;81;21145;-89
2021/04/28 08:25:52;;;;;;;9.03;5.60;;;;;;;9.98;100.00;101443.79;1765843;81;21419;-88
2021/04/28 08:28:20;;;;;;;6.10;5.20;;;;;;;9.93;100.00;101449.74;1768774;81;21364;-88
2021/04/28 08:30:48;;;;;;;6.08;5.55;;;;;;;9.87;99.89;101450.93;1768662;81;21073;-88
2021/04/28 08:33:16;;;;;;;6.03;5.03;;;;;;;9.89;100.00;101445.19;1768639;81;21159;-88
2021/04/28 08:35:47;;;;;;;6.08;5.47;;;;;;;10.05;100.00;101443.83;1830504;78;21131;-88
2021/04/28 08:38:17;;;;;;;12.35;5.22;;;;;;;10.22;100.00;101440.20;1830401;78;21192;-88
2021/04/28 08:40:45;;;;;;;5.85;5.20;;;;;;;10.39;100.00;101440.48;1810238;77;21480;-88
2021/04/28 08:43:14;;;;;;;6.95;5.28;;;;;;;10.49;100.00;101430.81;1841838;77;21675;-88
2021/04/28 08:45:44;;;;;;;6.05;4.72;;;;;;;10.57;100.00;101435.09;1841740;77;21127;-88
2021/04/28 08:48:15;;;;;;;5.33;4.83;;;;;;;10.69;100.00;101430.88;1831001;77;21162;-88
2021/04/28 08:50:46;;;;;;;4.60;4.20;;;;;;;10.87;99.94;101427.57;1827942;77;21099;-88
2021/04/28 08:53:17;;;;;;;4.50;4.10;;;;;;;11.09;85.37;101425.74;1841978;77;21482;-88
2021/04/28 08:55:47;;;;;;;5.83;4.80;;;;;;;11.26;81.76;101428.55;1810089;77;21092;-88
2021/04/28 08:58:16;;;;;;;6.40;4.53;;;;;;;11.39;76.54;101424.67;1841710;77;21131;-88
2021/04/28 09:00:45;;;;;;;5.00;4.53;;;;;;;11.50;88.30;101418.30;1841842;77;21084;-88
2021/04/28 09:03:16;;;;;;;5.15;4.50;;;;;;;11.66;92.10;101425.09;1841781;77;21139;-88
2021/04/28 09:05:45;;;;;;;6.55;4.12;;;;;;;11.83;83.74;101426.56;1837383;77;21570;-88
2021/04/28 09:08:14;;;;;;;4.85;4.00;;;;;;;11.93;77.73;101427.61;1827815;77;21136;-88
2021/04/28 09:10:42;;;;;;;4.55;4.08;;;;;;;12.03;76.45;101431.77;1832746;77;21190;-88
2021/04/28 09:13:37;;;;;;;4.20;3.60;;;;;;;12.17;73.52;101429.52;1856322;75;22694;-88
2021/04/28 09:16:25;;;;;;;4.00;3.60;;;;;;;12.23;66.35;101429.56;1840286;78;21116;-90
2021/04/28 09:18:54;;;;;;;3.75;3.15;;;;;;;12.27;59.51;101423.17;1840351;77;22256;-90
2021/04/28 09:21:51;;;;;;;4.35;3.27;;;;;;;12.27;58.11;101419.26;1840201;77;21176;-90
2021/04/28 09:24:51;;;;;;;3.92;3.52;;;;;;;12.34;71.84;101410.53;1840225;77;21129;-88
2021/04/28 09:27:41;;;;;;;3.80;3.50;;;;;;;12.57;77.67;101419.38;1840364;77;21482;-90
2021/04/28 09:30:28;;;;;;;7.05;3.85;;;;;;;12.72;73.24;101411.75;1840418;77;21520;-90
2021/04/28 09:33:03;;;;;;;9.95;4.05;;;;;;;12.96;75.21;101402.23;1839051;77;22348;-90
2021/04/28 09:35:32;;;;;;;3.77;3.40;;;;;;;13.14;77.08;101410.05;1815866;78;21157;-88
2021/04/28 09:38:02;;;;;;;3.58;3.27;;;;;;;13.29;66.06;101416.39;1774673;79;21145;-88
2021/04/28 09:40:51;;;;;;;4.03;3.52;;;;;;;13.28;51.92;101414.72;1817307;76;21153;-88
2021/04/28 09:43:19;;;;;;;4.70;3.40;;;;;;;13.19;51.41;101413.15;1810152;77;21184;-89
2021/04/28 09:45:51;;;;;;;3.05;2.80;;;;;;;13.03;53.89;101403.45;1745449;80;21362;-89
2021/04/28 09:48:25;;;;;;;4.65;3.10;;;;;;;12.90;55.77;101410.89;1759631;79;21166;-89
2021/04/28 09:51:06;;;;;;;7.67;3.35;;;;;;;12.57;49.66;101416.28;1770530;79;21570;-89
2021/04/28 09:53:35;;;;;;;4.42;2.98;;;;;;;12.30;50.67;101408.12;1759543;80;21159;-88
2021/04/28 10:00:30;;;;;;;3.58;3.27;;;;;;;12.30;63.37;101409.44;1772147;80;21159;-87
2021/04/28 10:07:28;;;;;;;3.77;3.20;;;;;;;12.48;57.12;101405.17;1770748;80;21136;-88
2021/04/28 10:10:23;;;;;;;5.55;3.27;;;;;;;12.63;50.78;101404.08;1770570;80;21130;-86
2021/04/28 10:12:52;;;;;;;5.00;2.95;;;;;;;12.74;50.22;101403.80;1755519;80;21063;-88
2021/04/28 10:15:20;;;;;;;4.87;3.15;;;;;;;12.89;56.85;101405.78;1772316;79;22281;-89
2021/04/28 10:17:50;;;;;;;3.33;3.02;;;;;;;12.94;53.04;101401.87;1772439;80;21604;-88
2021/04/28 10:20:19;;;;;;;3.60;2.90;;;;;;;12.98;53.69;101399.05;1767126;79;21164;-89
2021/04/28 10:22:51;;;;;;;5.15;3.00;;;;;;;13.13;54.05;101400.53;1774157;80;21963;-89
2021/04/28 10:25:20;;;;;;;3.05;2.65;;;;;;;13.21;47.58;101408.64;1778758;80;21167;-89
2021/04/28 10:27:49;;;;;;;3.10;2.70;;;;;;;13.26;48.42;101410.92;1754052;80;21361;-89
2021/04/28 10:30:18;;;;;;;3.35;2.70;;;;;;;13.39;52.65;101414.31;1776020;80;21130;-90
2021/04/28 10:32:46;;;;;;;4.05;3.17;;;;;;;13.59;50.93;101412.46;1780404;79;21123;-91
2021/04/28 10:35:19;;;;;;;6.65;3.10;;;;;;;13.77;50.05;101419.42;1750068;80;21166;-90
2021/04/28 10:37:50;;;;;;;3.22;2.85;;;;;;;13.76;45.09;101409.41;1746614;82;21590;-91
2021/04/28 10:40:23;;;;;;;3.25;2.77;;;;;;;13.61;45.29;101408.80;1749669;80;21192;-91
2021/04/28 10:42:53;;;;;;;3.40;2.85;;;;;;;13.52;47.12;101406.39;1772571;79;21150;-91
2021/04/28 10:45:30;;;;;;;2.93;2.70;;;;;;;13.58;53.73;101415.56;1778201;80;21194;-91
2021/04/28 10:47:58;;;;;;;2.85;2.65;;;;;;;13.61;49.69;101410.57;1777919;79;21355;-91
2021/04/28 10:50:46;;;;;;;3.42;2.80;;;;;;;13.52;49.67;101412.93;1777767;79;21553;-91
2021/04/28 10:53:27;;;;;;;3.50;2.50;;;;;;;13.41;44.95;101408.50;1750101;79;22303;-91
2021/04/28 10:56:13;;;;;;;2.70;2.50;;;;;;;13.28;44.37;101411.66;1777747;79;21464;-91
2021/04/28 10:58:48;;;;;;;3.40;2.80;;;;;;;13.24;43.67;101404.97;1778410;80;21110;-88
2021/04/28 11:05:29;;;;;;;2.95;2.62;;;;;;;13.43;44.88;101393.17;1769559;79;21170;-90
2021/04/28 11:08:01;;;;;;;3.55;2.70;;;;;;;13.52;42.74;101388.08;1774910;80;21370;-90
2021/04/28 11:10:34;;;;;;;3.92;3.10;;;;;;;13.66;42.90;101388.34;1760621;80;21127;-90
2021/04/28 11:13:18;;;;;;;2.67;2.45;;;;;;;13.79;46.02;101392.17;1753035;80;21087;-90
2021/04/28 11:15:58;;;;;;;2.98;2.33;;;;;;;13.88;46.66;101394.09;1760614;80;21115;-90
2021/04/28 11:18:37;;;;;;;3.00;2.47;;;;;;;13.84;46.50;101398.36;1778335;80;21514;-90
2021/04/28 11:21:20;;;;;;;2.20;2.00;;;;;;;13.70;43.19;101392.87;1778323;79;22246;-90
2021/04/28 11:24:10;;;;;;;3.98;2.75;;;;;;;13.69;42.44;101396.44;1778254;80;21098;-90
2021/04/28 11:26:50;;;;;;;4.03;2.70;;;;;;;13.76;44.24;101390.27;1778166;79;21459;-90
2021/04/28 11:29:55;;;;;;;5.62;2.83;;;;;;;13.88;43.85;101386.23;1777396;80;21186;-89
2021/04/28 11:33:10;;;;;;;3.58;2.80;;;;;;;13.97;43.81;101393.02;1778910;80;21044;-89
2021/04/28 11:35:56;;;;;;;2.55;2.27;;;;;;;14.09;41.79;101389.93;1770236;80;21211;-89
2021/04/28 11:38:32;;;;;;;3.15;2.50;;;;;;;14.04;41.25;101385.87;1759530;79;21154;-90
2021/04/28 11:45:33;;;;;;;5.97;2.47;;;;;;;14.08;44.12;101382.53;1776931;80;21179;-90
2021/04/28 11:48:18;;;;;;;2.55;2.35;;;;;;;13.98;40.00;101382.91;1759514;80;21561;-93
2021/04/28 11:50:55;;;;;;;2.85;2.25;;;;;;;13.91;41.86;101386.47;1778189;80;22455;-89
2021/04/28 11:53:26;;;;;;;4.42;2.62;;;;;;;13.77;39.54;101384.91;1764954;80;21144;-91
2021/04/28 11:55:54;;;;;;;2.40;2.10;;;;;;;13.63;40.64;101375.48;1766828;79;21134;-90
2021/04/28 12:02:46;;;;;;;2.70;2.50;;;;;;;13.47;42.93;101377.13;1773599;80;21156;-90
2021/04/28 12:09:30;;;;;;;3.85;2.67;;;;;;;12.91;41.89;101372.50;1757611;81;21174;-90
2021/04/28 12:12:28;;;;;;;2.45;2.10;;;;;;;13.04;42.00;101369.37;1771816;80;21562;-90
2021/04/28 12:23:04;;;;;;;4.95;2.58;;;;;;;13.82;40.62;101359.20;1818118;78;21141;-90
2021/04/28 12:29:27;;;;;;;3.25;2.50;;;;;;;14.17;45.15;101363.48;1813995;78;21549;-89
2021/04/28 12:40:45;;;;;;;9.85;2.80;;;;;;;13.90;41.10;101363.86;1787670;77;21173;-89
2021/04/28 12:51:50;;;;;;;4.65;1.90;;;;;;;14.65;41.85;101345.30;1753509;80;20472;-87
2021/04/28 12:54:49;;;;;;;3.25;2.35;;;;;;;14.75;43.98;101341.93;1759098;80;21156;-93
2021/04/28 12:58:03;;;;;;;3.10;2.20;;;;;;;14.67;41.43;101339.45;1762796;81;21182;-90
2021/04/28 13:04:56;;;;;;;3.37;1.75;;;;;;;14.70;42.84;101338.86;1733638;82;21163;-90
2021/04/28 13:07:26;;;;;;;3.92;2.12;;;;;;;14.76;40.25;101347.53;1691727;82;21163;-90
2021/04/28 13:10:30;;;;;;;4.22;2.20;;;;;;;14.73;41.15;101339.44;1737009;81;21189;-90
2021/04/28 13:16:53;;;;;;;8.13;2.33;;;;;;;14.50;42.62;101343.42;1753733;81;21195;-91
2021/04/28 13:19:43;;;;;;;15.63;3.50;;;;;;;14.41;41.89;101349.39;1758164;81;21123;-91
2021/04/28 13:26:40;;;;;;;2.20;2.00;;;;;;;14.20;40.36;101361.09;1729584;81;21488;-88
2021/04/28 13:33:38;;;;;;;2.90;2.50;;;;;;;13.49;40.07;101362.16;1807704;78;20940;-90
2021/04/28 13:36:06;;;;;;;3.17;2.75;;;;;;;13.19;41.52;101364.77;1829518;78;21524;-90
2021/04/28 13:38:52;;;;;;;4.42;2.52;;;;;;;13.09;41.56;101367.73;1804851;78;21141;-94
2021/04/28 13:41:22;;;;;;;4.40;2.27;;;;;;;13.06;43.61;101369.25;1816495;77;21173;-93
2021/04/28 13:43:51;;;;;;;2.52;2.33;;;;;;;13.13;44.83;101367.84;1795789;78;21184;-94
2021/04/28 13:46:19;;;;;;;9.43;2.60;;;;;;;13.19;43.45;101364.77;1837031;77;21496;-93
2021/04/28 13:48:48;;;;;;;9.98;2.72;;;;;;;13.20;43.09;101362.52;1824950;77;21542;-93
2021/04/28 13:51:16;;;;;;;3.05;2.20;;;;;;;13.15;45.36;101367.27;1808167;77;21153;-93
2021/04/28 13:58:08;;;;;;;6.25;3.00;;;;;;;13.04;44.85;101365.91;1828764;78;21166;-93
2021/04/28 14:00:36;;;;;;;4.03;2.50;;;;;;;12.96;45.65;101364.33;1796273;79;21117;-94
2021/04/28 14:06:30;;;;;;;2.30;2.10;;;;;;;12.94;47.79;101367.06;1729944;82;21865;-94
2021/04/28 14:13:08;;;;;;;4.03;2.37;;;;;;;12.88;49.11;101358.38;1711087;83;21144;-91
2021/04/28 14:19:28;;;;;;;22.77;3.10;;;;;;;12.86;47.41;101363.69;1707299;81;21190;-93
2021/04/28 14:22:23;;;;;;;9.28;2.65;;;;;;;12.92;48.46;101363.72;1678642;85;21171;-92
2021/04/28 14:24:52;;;;;;;15.72;3.00;;;;;;;12.90;46.94;101362.98;1672994;84;21135;-92
2021/04/28 14:27:20;;;;;;;13.85;2.35;;;;;;;12.77;46.00;101363.90;1680053;85;22376;-91
2021/04/28 14:29:48;;;;;;;10.68;2.60;;;;;;;12.68;47.70;101361.12;1675255;83;21190;-91
2021/04/28 14:32:18;;;;;;;5.40;2.60;;;;;;;12.68;49.02;101361.12;1685802;84;21225;-91
2021/04/28 14:34:46;;;;;;;5.75;2.15;;;;;;;12.72;49.09;101357.33;1688170;84;21578;-93
2021/04/28 14:37:44;;;;;;;4.30;2.40;;;;;;;12.80;48.27;101357.61;1690077;84;21186;-91
2021/04/28 14:40:13;;;;;;;2.62;2.40;;;;;;;12.86;46.82;101354.55;1691161;84;21544;-92
2021/04/28 14:42:43;;;;;;;4.78;2.05;;;;;;;12.91;45.62;101355.06;1692970;83;21154;-91
2021/04/28 14:49:24;;;;;;;13.70;2.98;;;;;;;12.96;47.05;101357.79;1730867;81;21548;-89
2021/04/28 14:55:52;;;;;;;13.88;2.58;;;;;;;12.82;49.06;101357.03;1723645;80;21176;-93
2021/04/28 14:58:49;;;;;;;5.08;2.58;;;;;;;12.74;53.47;101358.06;1744767;82;21168;-93
2021/04/28 15:01:47;;;;;;;2.80;2.08;;;;;;;12.69;49.65;101354.47;1745099;82;21120;-93
2021/04/28 15:04:44;;;;;;;4.55;2.62;;;;;;;12.64;49.14;101355.29;1744763;80;21897;-93
2021/04/28 15:10:45;;;;;;;10.78;2.17;;;;;;;12.63;49.95;101355.74;1744262;80;21357;-91
2021/04/28 15:13:42;;;;;;;3.10;2.10;;;;;;;12.61;47.16;101355.50;1731637;82;21073;-93
2021/04/28 15:16:11;;;;;;;2.15;1.90;;;;;;;12.59;48.09;101354.31;1715305;83;21135;-92
2021/04/28 15:18:40;;;;;;;3.70;2.00;;;;;;;12.57;48.14;101349.66;1724515;80;21126;-93
2021/04/28 15:21:09;;;;;;;2.98;2.08;;;;;;;12.52;47.20;101354.39;1762158;81;21129;-93
2021/04/28 15:23:39;;;;;;;2.42;2.22;;;;;;;12.46;44.45;101349.13;1739865;81;21509;-93
2021/04/28 15:26:08;;;;;;;5.42;2.00;;;;;;;12.42;42.12;101343.75;1714593;83;21151;-93
2021/04/28 15:29:07;;;;;;;5.78;2.30;;;;;;;12.44;47.16;101351.49;1706959;83;21537;-93
2021/04/28 15:35:58;;;;;;;2.55;2.17;;;;;;;12.39;43.03;101353.58;1796216;79;21133;-91
2021/04/28 15:38:28;;;;;;;2.77;2.12;;;;;;;12.37;43.81;101357.62;1796251;79;21362;-94
2021/04/28 15:41:00;;;;;;;44.40;4.90;;;;;;;12.35;43.25;101354.75;1796228;79;21110;-93
2021/04/28 15:43:28;;;;;;;104.90;6.40;;;;;;;12.35;47.11;101354.75;1776175;79;21138;-92
2021/04/28 15:46:25;;;;;;;144.55;9.98;;;;;;;12.39;61.70;101352.27;1796200;79;21550;-91
2021/04/28 15:48:53;;;;;;;51.88;4.03;;;;;;;12.44;66.29;101356.72;1794870;79;21141;-92
2021/04/28 15:51:29;;;;;;;89.28;6.03;;;;;;;12.47;69.59;101360.40;1780229;78;22118;-93
2021/04/28 15:53:58;;;;;;;82.55;6.40;;;;;;;12.49;82.95;101351.98;1693874;83;21518;-93
2021/04/28 15:56:33;;;;;;;24.47;3.08;;;;;;;12.51;81.69;101350.11;1687394;84;21186;-92
2021/04/28 15:59:33;;;;;;;24.90;3.45;;;;;;;12.50;71.31;101352.36;1707464;83;21103;-92
2021/04/28 16:02:04;;;;;;;16.30;3.12;;;;;;;12.47;62.71;101353.87;1707512;84;21119;-93
2021/04/28 16:04:33;;;;;;;16.70;3.02;;;;;;;12.44;65.71;101361.45;1712850;82;21131;-93
2021/04/28 16:07:02;;;;;;;19.12;3.45;;;;;;;12.39;68.83;101366.19;1736878;82;21131;-93
2021/04/28 16:09:30;;;;;;;21.12;3.70;;;;;;;12.33;80.20;101364.47;1736809;81;21159;-92
2021/04/28 16:12:02;;;;;;;4.90;2.60;;;;;;;12.28;87.90;101368.25;1725769;81;21128;-93
2021/04/28 16:14:32;;;;;;;27.25;4.25;;;;;;;12.22;83.77;101366.05;1717095;81;21055;-93
2021/04/28 16:17:01;;;;;;;7.65;3.10;;;;;;;12.17;88.44;101365.55;1728774;81;22199;-93
2021/04/28 16:19:29;;;;;;;18.35;3.65;;;;;;;12.12;94.75;101362.44;1728774;82;21135;-92
2021/04/28 16:25:25;;;;;;;29.07;4.85;;;;;;;12.03;100.00;101369.11;1710353;83;21170;-92
2021/04/28 16:27:55;;;;;;;25.05;5.30;;;;;;;11.98;100.00;101364.20;1707434;83;21182;-91
2021/04/28 16:30:25;;;;;;;20.97;4.50;;;;;;;11.93;100.00;101359.76;1706832;83;21535;-92
2021/04/28 16:32:53;;;;;;;16.40;4.53;;;;;;;11.88;100.00;101361.86;1706924;84;21198;-92
2021/04/28 16:35:22;;;;;;;33.55;5.03;;;;;;;11.83;100.00;101360.02;1707120;82;21486;-92
2021/04/28 16:37:51;;;;;;;30.25;4.97;;;;;;;11.77;100.00;101366.52;1764577;81;21129;-91
2021/04/28 16:40:19;;;;;;;27.55;4.85;;;;;;;11.72;100.00;101365.16;1764712;81;21608;-92
2021/04/28 16:42:47;;;;;;;55.90;5.85;;;;;;;11.65;100.00;101365.58;1768672;79;21703;-91
2021/04/28 16:45:15;;;;;;;25.60;5.12;;;;;;;11.58;100.00;101374.73;1778362;79;21581;-91
2021/04/28 16:48:11;;;;;;;30.65;4.95;;;;;;;11.53;100.00;101374.21;1764728;81;21090;-92
2021/04/28 16:50:40;;;;;;;36.70;4.37;;;;;;;11.45;100.00;101379.96;1769364;78;21161;-90
2021/04/28 16:53:12;;;;;;;105.10;9.45;;;;;;;11.38;100.00;101373.94;1767340;79;21126;-92
2021/04/28 16:55:42;;;;;;;8.70;3.53;;;;;;;11.29;100.00;101373.61;1786935;79;21406;-91
2021/04/28 16:58:10;;;;;;;64.03;5.95;;;;;;;11.20;100.00;101379.42;1784132;79;21622;-91
2021/04/28 17:00:38;;;;;;;54.42;6.33;;;;;;;11.08;100.00;101381.54;1744937;81;21246;-90
2021/04/28 17:03:09;;;;;;;34.30;4.70;;;;;;;10.98;100.00;101382.13;1764548;81;21672;-92
2021/04/28 17:05:37;;;;;;;31.80;4.40;;;;;;;10.87;100.00;101382.83;1764693;80;21561;-91
2021/04/28 17:08:05;;;;;;;35.70;5.12;;;;;;;10.75;100.00;101382.77;1764781;81;21337;-92
2021/04/28 17:10:33;;;;;;;22.80;4.58;;;;;;;10.61;100.00;101383.64;1764627;81;21165;-91
2021/04/28 17:13:02;;;;;;;23.75;5.47;;;;;;;10.51;100.00;101392.51;1764556;80;21651;-90
2021/04/28 17:15:30;;;;;;;23.25;5.95;;;;;;;10.43;100.00;101394.75;1729066;82;21203;-92
2021/04/28 17:17:59;;;;;;;12.40;7.90;;;;;;;10.36;100.00;101400.31;1707407;84;21127;-91
2021/04/28 17:20:27;;;;;;;29.12;9.60;;;;;;;10.31;100.00;101402.34;1701616;82;22338;-90
2021/04/28 17:22:56;;;;;;;35.88;11.25;;;;;;;10.23;100.00;101403.28;1699228;83;21175;-91
2021/04/28 17:25:28;;;;;;;19.90;8.05;;;;;;;10.14;100.00;101407.29;1722833;83;21175;-92
2021/04/28 17:27:58;;;;;;;35.33;9.58;;;;;;;10.09;100.00;101405.44;1709245;82;21172;-91
2021/04/28 17:30:28;;;;;;;18.87;7.50;;;;;;;10.06;100.00;101402.53;1731320;80;21137;-91
2021/04/28 17:32:57;;;;;;;25.27;6.78;;;;;;;10.04;100.00;101407.02;1752282;80;22184;-91
2021/04/28 17:35:26;;;;;;;18.32;6.50;;;;;;;10.03;100.00;101411.84;1761124;80;21604;-90
2021/04/28 17:37:56;;;;;;;14.07;6.58;;;;;;;10.01;100.00;101414.17;1758166;79;21216;-91
2021/04/28 17:40:24;;;;;;;17.27;6.67;;;;;;;9.99;100.00;101423.35;1762917;80;21359;-91
2021/04/28 17:42:53;;;;;;;26.87;8.88;;;;;;;9.98;100.00;101422.15;1752272;80;21565;-91
2021/04/28 17:45:21;;;;;;;21.20;9.08;;;;;;;9.94;100.00;101424.10;1748963;80;21480;-91
2021/04/28 17:47:50;;;;;;;19.10;8.65;;;;;;;9.92;100.00;101424.20;1774425;80;21110;-91
2021/04/28 17:50:18;;;;;;;18.25;9.38;;;;;;;9.89;100.00;101427.45;1746527;81;21160;-91
2021/04/28 17:52:49;;;;;;;11.63;7.50;;;;;;;9.86;100.00;101428.92;1761212;79;21169;-91
2021/04/28 17:55:17;;;;;;;8.68;7.35;;;;;;;9.82;100.00;101433.47;1777385;79;21149;-91
2021/04/28 17:57:46;;;;;;;8.70;7.85;;;;;;;9.78;100.00;101432.81;1776911;79;22300;-93
2021/04/28 18:00:18;;;;;;;8.70;6.78;;;;;;;9.72;100.00;101437.08;1747710;80;21220;-91
2021/04/28 18:02:47;;;;;;;10.68;6.83;;;;;;;9.67;100.00;101427.87;1746323;81;21113;-91
2021/04/28 18:08:01;;;;;;;12.30;5.72;;;;;;;9.60;100.00;101428.67;1882406;76;22834;-91
2021/04/28 18:10:29;;;;;;;10.30;5.17;;;;;;;9.52;100.00;101428.28;1816065;77;21139;-90
2021/04/28 18:12:59;;;;;;;9.93;5.58;;;;;;;9.47;100.00;101428.10;1815784;78;21036;-90
2021/04/28 18:15:27;;;;;;;7.03;5.87;;;;;;;9.42;100.00;101427.51;1798036;77;21210;-90
2021/04/28 18:17:55;;;;;;;8.35;5.10;;;;;;;9.37;100.00;101429.55;1826118;77;21112;-90
2021/04/28 18:20:27;;;;;;;7.33;5.20;;;;;;;9.31;100.00;101428.12;1816831;77;21123;-90
2021/04/28 18:22:56;;;;;;;5.58;4.20;;;;;;;9.28;100.00;101427.47;1813294;77;21096;-91
2021/04/28 18:25:25;;;;;;;4.92;4.42;;;;;;;9.25;100.00;101423.76;1819166;77;22424;-91
2021/04/28 18:27:54;;;;;;;14.10;4.87;;;;;;;9.23;100.00;101431.62;1811296;77;21131;-91
2021/04/28 18:30:22;;;;;;;4.85;4.33;;;;;;;9.20;100.00;101429.66;1848922;77;21167;-91
2021/04/28 18:32:51;;;;;;;7.75;4.80;;;;;;;9.15;100.00;101427.31;1848995;77;21204;-91
2021/04/28 18:35:21;;;;;;;5.45;4.65;;;;;;;9.11;100.00;101437.05;1849116;77;21143;-91
2021/04/28 18:37:50;;;;;;;8.63;5.28;;;;;;;9.08;100.00;101435.08;1849189;77;22122;-91
2021/04/28 18:40:18;;;;;;;7.40;5.45;;;;;;;9.03;100.00;101436.63;1848921;77;21171;-91
2021/04/28 18:42:50;;;;;;;8.65;5.58;;;;;;;8.98;100.00;101437.36;1848713;77;21167;-91
2021/04/28 18:45:18;;;;;;;10.23;6.28;;;;;;;8.91;100.00;101441.22;1838799;76;26943;-88
2021/04/28 18:47:49;;;;;;;12.80;5.75;;;;;;;8.87;100.00;101438.40;1832983;76;21153;-91
2021/04/28 18:50:18;;;;;;;11.67;5.53;;;;;;;8.81;100.00;101440.89;1821486;77;22472;-91
2021/04/28 18:52:47;;;;;;;7.60;5.70;;;;;;;8.74;100.00;101443.42;1825783;77;21427;-90
2021/04/28 18:55:22;;;;;;;12.25;6.60;;;;;;;8.67;100.00;101441.63;1800684;77;21183;-91
2021/04/28 18:57:50;;;;;;;10.60;6.42;;;;;;;8.62;100.00;101440.58;1802941;77;21533;-91
2021/04/28 19:13:11;;;;;;;11.93;8.05;;;;;;;8.36;100.00;101443.23;1808973;79;21162;-88
2021/04/28 19:19:44;;;;;;;15.78;6.90;;;;;;;8.19;100.00;101444.10;1808471;79;21151;-88